createdAt,value
2022-07-29T00:01:02.130Z,100.00
2022-07-29T00:03:28.722Z,100.00
2022-07-29T00:05:55.398Z,100.00
2022-07-29T00:08:22.039Z,100.00
2022-07-29T00:10:50.572Z,100.00
2022-07-29T00:13:17.164Z,100.00
2022-07-29T00:15:43.710Z,100.00
2022-07-29T00:18:10.299Z,100.00
2022-07-29T00:20:36.962Z,100.00
2022-07-29T00:23:03.787Z,100.00
2022-07-29T00:25:30.322Z,100.00
2022-07-29T00:28:00.403Z,100.00
2022-07-29T00:30:27.011Z,100.00
2022-07-29T00:32:53.643Z,100.00
2022-07-29T00:35:38.936Z,100.00
2022-07-29T00:38:05.552Z,100.00
2022-07-29T00:40:32.139Z,100.00
2022-07-29T00:42:58.794Z,100.00
2022-07-29T00:45:26.664Z,100.00
2022-07-29T00:47:53.268Z,100.00
2022-07-29T00:50:19.866Z,100.00
2022-07-29T00:52:46.485Z,100.00
2022-07-29T00:55:15.059Z,100.00
2022-07-29T00:57:42.743Z,100.00
2022-07-29T01:00:18.815Z,100.00
2022-07-29T01:02:48.398Z,100.00
2022-07-29T01:05:15.966Z,100.00
2022-07-29T01:07:42.923Z,100.00
2022-07-29T01:10:10.970Z,100.00
2022-07-29T01:12:38.499Z,100.00
2022-07-29T01:15:07.538Z,100.00
2022-07-29T01:17:53.636Z,100.00
2022-07-29T01:20:37.715Z,100.00
2022-07-29T01:23:10.643Z,100.00
2022-07-29T01:25:59.021Z,100.00
2022-07-29T01:28:44.784Z,100.00
2022-07-29T01:31:25.042Z,100.00
2022-07-29T01:33:59.246Z,100.00
2022-07-29T01:36:50.051Z,100.00
2022-07-29T01:39:28.680Z,100.00
2022-07-29T01:42:19.847Z,100.00
2022-07-29T01:45:12.387Z,100.00
2022-07-29T01:48:01.146Z,100.00
2022-07-29T01:50:34.872Z,100.00
2022-07-29T01:53:04.947Z,100.00
2022-07-29T01:55:41.055Z,100.00
2022-07-29T01:58:08.176Z,100.00
2022-07-29T02:00:35.732Z,100.00
2022-07-29T02:03:07.264Z,100.00
2022-07-29T02:05:34.868Z,100.00
2022-07-29T02:08:02.367Z,100.00
2022-07-29T02:10:31.394Z,100.00
2022-07-29T02:12:58.995Z,100.00
2022-07-29T02:15:27.709Z,100.00
2022-07-29T02:18:08.254Z,100.00
2022-07-29T02:20:35.511Z,100.00
2022-07-29T02:23:03.963Z,100.00
2022-07-29T02:25:37.665Z,100.00
2022-07-29T02:28:06.837Z,100.00
2022-07-29T02:30:34.308Z,100.00
2022-07-29T02:33:01.719Z,100.00
2022-07-29T02:35:28.533Z,100.00
2022-07-29T02:38:21.623Z,100.00
2022-07-29T02:40:49.995Z,100.00
2022-07-29T02:43:16.886Z,100.00
2022-07-29T02:45:43.846Z,100.00
2022-07-29T02:48:16.261Z,100.00
2022-07-29T02:50:51.381Z,100.00
2022-07-29T02:53:25.438Z,100.00
2022-07-29T02:56:01.304Z,100.00
2022-07-29T02:59:00.478Z,100.00
2022-07-29T03:01:29.916Z,87.61
2022-07-29T03:03:56.626Z,79.90
2022-07-29T03:06:37.618Z,76.89
2022-07-29T03:09:12.504Z,71.64
2022-07-29T03:11:49.914Z,67.74
2022-07-29T03:14:19.455Z,67.02
2022-07-29T03:16:46.797Z,69.40
2022-07-29T03:19:14.222Z,67.20
2022-07-29T03:21:40.831Z,68.18
2022-07-29T03:24:10.597Z,69.74
2022-07-29T03:26:37.965Z,67.65
2022-07-29T03:29:04.586Z,75.47
2022-07-29T03:31:32.156Z,73.67
2022-07-29T03:34:00.688Z,61.16
2022-07-29T03:36:27.423Z,61.78
2022-07-29T03:38:54.430Z,80.89
2022-07-29T03:41:23.164Z,72.83
2022-07-29T03:43:50.937Z,77.54
2022-07-29T03:46:18.448Z,98.32
2022-07-29T03:48:48.030Z,96.46
2022-07-29T03:51:14.735Z,100.00
2022-07-29T03:53:41.400Z,97.86
2022-07-29T03:56:09.040Z,100.00
2022-07-29T03:58:35.839Z,86.20
2022-07-29T04:01:02.757Z,91.97
2022-07-29T04:03:29.424Z,94.91
2022-07-29T04:06:04.425Z,100.00
2022-07-29T04:08:31.313Z,100.00
2022-07-29T04:10:58.012Z,100.00
2022-07-29T04:13:24.653Z,100.00
2022-07-29T04:15:51.310Z,100.00
2022-07-29T04:18:17.979Z,98.41
2022-07-29T04:20:44.628Z,97.83
2022-07-29T04:23:11.262Z,100.00
2022-07-29T04:25:39.610Z,100.00
2022-07-29T04:28:06.859Z,100.00
2022-07-29T04:30:34.575Z,100.00
2022-07-29T04:33:02.308Z,100.00
2022-07-29T04:35:29.958Z,100.00
2022-07-29T04:37:56.649Z,100.00
2022-07-29T04:40:23.430Z,100.00
2022-07-29T04:42:50.015Z,84.78
2022-07-29T04:45:16.632Z,77.62
2022-07-29T04:47:49.347Z,76.03
2022-07-29T04:50:15.964Z,72.54
2022-07-29T04:52:42.790Z,72.67
2022-07-29T04:55:10.474Z,84.96
2022-07-29T04:57:37.119Z,80.37
2022-07-29T05:00:05.403Z,76.63
2022-07-29T05:02:32.152Z,74.22
2022-07-29T05:04:58.770Z,86.17
2022-07-29T05:07:25.392Z,79.03
2022-07-29T05:09:52.048Z,81.91
2022-07-29T05:12:18.590Z,58.76
2022-07-29T05:14:45.348Z,58.55
2022-07-29T05:17:11.984Z,49.87
2022-07-29T05:19:39.767Z,55.75
2022-07-29T05:22:06.600Z,69.18
2022-07-29T05:24:33.159Z,58.73
2022-07-29T05:26:59.891Z,63.02
2022-07-29T05:29:44.993Z,49.95
2022-07-29T05:32:13.343Z,55.33
2022-07-29T05:34:50.970Z,47.11
2022-07-29T05:37:20.190Z,51.71
2022-07-29T05:39:50.351Z,51.75
2022-07-29T05:42:17.491Z,61.73
2022-07-29T05:44:44.059Z,51.89
2022-07-29T05:47:10.648Z,48.34
2022-07-29T05:49:37.358Z,52.55
2022-07-29T05:52:04.283Z,61.42
2022-07-29T05:54:30.926Z,61.85
2022-07-29T05:56:57.603Z,60.62
2022-07-29T05:59:29.802Z,67.46
2022-07-29T06:01:58.110Z,58.34
2022-07-29T06:04:25.113Z,63.85
2022-07-29T06:06:51.734Z,66.40
2022-07-29T06:09:18.746Z,72.57
2022-07-29T06:11:45.462Z,88.93
2022-07-29T06:14:12.230Z,89.68
2022-07-29T06:16:39.294Z,77.62
2022-07-29T06:19:05.922Z,89.33
2022-07-29T06:21:32.515Z,70.73
2022-07-29T06:23:59.340Z,67.35
2022-07-29T06:26:30.348Z,63.05
2022-07-29T06:29:04.620Z,59.85
2022-07-29T06:31:31.194Z,53.88
2022-07-29T06:33:57.802Z,54.39
2022-07-29T06:36:25.078Z,53.32
2022-07-29T06:38:52.122Z,51.50
2022-07-29T06:41:19.219Z,55.25
2022-07-29T06:43:52.305Z,54.45
2022-07-29T06:46:21.936Z,57.16
2022-07-29T06:48:49.655Z,57.95
2022-07-29T06:51:22.713Z,53.14
2022-07-29T06:53:59.500Z,51.20
2022-07-29T06:56:29.284Z,52.30
2022-07-29T06:58:55.903Z,54.01
2022-07-29T07:01:22.659Z,52.20
2022-07-29T07:03:49.320Z,51.06
2022-07-29T07:06:16.092Z,50.82
2022-07-29T07:08:42.703Z,50.24
2022-07-29T07:11:09.751Z,58.51
2022-07-29T07:13:36.743Z,50.98
2022-07-29T07:16:04.728Z,50.21
2022-07-29T07:18:31.484Z,51.29
2022-07-29T07:20:58.665Z,51.97
2022-07-29T07:23:25.798Z,51.84
2022-07-29T07:25:52.578Z,50.50
2022-07-29T07:28:19.636Z,50.87
2022-07-29T07:30:52.562Z,49.58
2022-07-29T07:33:19.402Z,49.28
2022-07-29T07:35:50.474Z,49.28
2022-07-29T07:38:18.315Z,49.70
2022-07-29T07:40:47.369Z,51.53
2022-07-29T07:43:13.988Z,57.67
2022-07-29T07:45:41.261Z,55.46
2022-07-29T07:48:07.907Z,52.72
2022-07-29T07:50:34.952Z,50.73
2022-07-29T07:53:03.116Z,49.60
2022-07-29T07:55:42.409Z,50.27
2022-07-29T07:58:16.365Z,51.77
2022-07-29T08:00:42.945Z,52.82
2022-07-29T08:03:16.512Z,53.46
2022-07-29T08:05:44.572Z,51.92
2022-07-29T08:08:11.149Z,50.80
2022-07-29T08:10:53.255Z,51.07
2022-07-29T08:13:25.260Z,52.09
2022-07-29T08:16:12.511Z,52.89
2022-07-29T08:18:40.511Z,51.09
2022-07-29T08:21:07.474Z,51.56
2022-07-29T08:23:47.841Z,50.00
2022-07-29T08:26:17.448Z,51.23
2022-07-29T08:28:46.843Z,51.66
2022-07-29T08:31:14.713Z,50.91
2022-07-29T08:33:41.483Z,51.47
2022-07-29T08:36:08.123Z,49.56
2022-07-29T08:38:34.815Z,48.91
2022-07-29T08:41:02.306Z,49.37
2022-07-29T08:43:31.932Z,51.30
2022-07-29T08:45:58.755Z,52.31
2022-07-29T08:48:25.758Z,51.03
2022-07-29T08:50:57.047Z,49.03
2022-07-29T08:53:27.368Z,49.64
2022-07-29T08:55:54.216Z,46.75
2022-07-29T08:58:23.268Z,47.53
2022-07-29T09:00:56.680Z,44.05
2022-07-29T09:03:26.163Z,45.38
2022-07-29T09:05:53.058Z,45.06
2022-07-29T09:08:19.953Z,43.85
2022-07-29T09:10:46.759Z,41.67
2022-07-29T09:13:13.430Z,41.07
2022-07-29T09:15:40.263Z,43.84
2022-07-29T09:18:06.936Z,45.77
2022-07-29T09:20:52.357Z,44.16
2022-07-29T09:23:23.290Z,45.18
2022-07-29T09:25:51.075Z,42.51
2022-07-29T09:28:19.313Z,41.24
2022-07-29T09:30:57.464Z,41.46
2022-07-29T09:33:25.318Z,40.74
2022-07-29T09:36:04.120Z,42.17
2022-07-29T09:38:33.812Z,42.95
2022-07-29T09:41:05.750Z,42.79
2022-07-29T09:43:33.386Z,42.55
2022-07-29T09:46:13.649Z,42.83
2022-07-29T09:48:40.461Z,46.95
2022-07-29T09:51:20.694Z,46.75
2022-07-29T09:53:49.142Z,44.85
2022-07-29T09:56:15.784Z,46.33
2022-07-29T09:58:42.473Z,42.42
2022-07-29T10:01:09.189Z,42.53
2022-07-29T10:03:52.468Z,43.98
2022-07-29T10:06:19.137Z,44.42
2022-07-29T10:08:45.718Z,43.52
2022-07-29T10:11:17.417Z,43.43
2022-07-29T10:13:45.593Z,43.78
2022-07-29T10:16:13.988Z,43.20
2022-07-29T10:18:42.159Z,42.28
2022-07-29T10:21:09.020Z,44.15
2022-07-29T10:23:46.346Z,42.56
2022-07-29T10:26:15.486Z,40.48
2022-07-29T10:28:42.136Z,42.15
2022-07-29T10:31:14.917Z,42.12
2022-07-29T10:34:06.157Z,45.07
2022-07-29T10:36:51.608Z,45.01
2022-07-29T10:42:10.820Z,45.03
2022-07-29T10:44:41.379Z,45.56
2022-07-29T10:47:08.614Z,45.44
2022-07-29T10:49:36.735Z,45.42
2022-07-29T10:52:10.355Z,42.66
2022-07-29T10:54:42.541Z,42.05
2022-07-29T10:57:14.850Z,42.46
2022-07-29T10:59:44.205Z,42.28
2022-07-29T11:02:43.790Z,43.22
2022-07-29T11:05:15.837Z,41.70
2022-07-29T11:08:19.523Z,40.25
2022-07-29T11:10:47.991Z,41.20
2022-07-29T11:13:44.400Z,40.06
2022-07-29T11:16:11.381Z,40.80
2022-07-29T11:19:13.356Z,38.69
2022-07-29T11:21:53.768Z,39.79
2022-07-29T11:24:35.523Z,43.29
2022-07-29T11:27:18.205Z,40.78
2022-07-29T11:29:50.770Z,40.66
2022-07-29T11:32:23.176Z,41.55
2022-07-29T11:34:51.645Z,44.94
2022-07-29T11:37:27.917Z,42.15
2022-07-29T11:40:01.527Z,41.33
2022-07-29T11:42:34.316Z,39.40
2022-07-29T11:45:04.302Z,38.51
2022-07-29T11:47:51.759Z,37.56
2022-07-29T11:50:32.190Z,38.62
2022-07-29T11:53:00.102Z,39.17
2022-07-29T11:55:32.261Z,41.67
2022-07-29T11:58:04.412Z,39.41
2022-07-29T12:00:49.288Z,38.12
2022-07-29T12:03:34.961Z,39.06
2022-07-29T12:06:04.482Z,38.81
2022-07-29T12:08:41.407Z,39.17
2022-07-29T12:11:16.810Z,38.65
2022-07-29T12:13:43.413Z,39.00
2022-07-29T12:16:10.080Z,41.80
2022-07-29T12:18:41.445Z,43.99
2022-07-29T12:21:09.302Z,44.43
2022-07-29T12:23:39.112Z,47.69
2022-07-29T12:26:07.256Z,41.80
2022-07-29T12:28:38.541Z,42.23
2022-07-29T12:31:05.984Z,42.71
2022-07-29T12:33:32.843Z,43.78
2022-07-29T12:36:15.658Z,41.89
2022-07-29T12:38:44.539Z,44.86
2022-07-29T12:41:11.409Z,42.06
2022-07-29T12:43:38.113Z,41.31
2022-07-29T12:46:15.869Z,39.77
2022-07-29T12:48:44.046Z,41.49
2022-07-29T12:51:12.662Z,42.58
2022-07-29T12:53:39.721Z,42.09
2022-07-29T12:56:26.658Z,42.89
2022-07-29T12:58:54.223Z,45.91
2022-07-29T13:01:21.866Z,43.59
2022-07-29T13:03:56.958Z,43.58
2022-07-29T13:06:35.943Z,44.86
2022-07-29T13:09:19.177Z,43.80
2022-07-29T13:11:48.752Z,43.54
2022-07-29T13:14:32.620Z,45.41
2022-07-29T13:17:05.602Z,43.67
2022-07-29T13:19:47.590Z,44.25
2022-07-29T13:22:24.027Z,43.05
2022-07-29T13:24:55.030Z,43.40
2022-07-29T13:27:27.478Z,46.35
2022-07-29T13:29:57.794Z,45.91
2022-07-29T13:32:28.450Z,46.76
2022-07-29T13:35:01.098Z,47.71
2022-07-29T13:37:30.681Z,48.32
2022-07-29T13:39:58.107Z,48.06
2022-07-29T13:42:25.761Z,48.70
2022-07-29T13:44:52.759Z,49.03
2022-07-29T13:47:20.928Z,48.25
2022-07-29T13:49:47.652Z,47.43
2022-07-29T13:52:14.910Z,46.24
2022-07-29T13:54:42.550Z,46.30
2022-07-29T13:57:11.756Z,45.78
2022-07-29T13:59:39.208Z,44.92
2022-07-29T14:02:06.558Z,45.45
2022-07-29T14:04:34.492Z,45.08
2022-07-29T14:07:03.780Z,43.75
2022-07-29T14:09:41.238Z,43.02
2022-07-29T14:12:08.859Z,43.48
2022-07-29T14:14:37.354Z,43.56
2022-07-29T14:17:04.397Z,43.96
2022-07-29T14:19:33.021Z,44.20
2022-07-29T14:22:00.382Z,44.25
2022-07-29T14:24:27.474Z,45.21
2022-07-29T14:26:54.192Z,44.50
2022-07-29T14:29:20.945Z,44.92
2022-07-29T14:31:47.906Z,44.99
2022-07-29T14:34:16.375Z,45.15
2022-07-29T14:36:43.233Z,44.98
2022-07-29T14:39:09.838Z,45.46
2022-07-29T14:41:36.464Z,45.36
2022-07-29T14:44:03.330Z,45.87
2022-07-29T14:46:30.005Z,45.38
2022-07-29T14:48:56.750Z,45.14
2022-07-29T14:51:23.409Z,43.97
2022-07-29T14:53:54.453Z,44.00
2022-07-29T14:56:46.666Z,42.66
2022-07-29T14:59:12.019Z,43.08
2022-07-29T15:01:43.496Z,42.64
2022-07-29T15:04:10.226Z,43.02
2022-07-29T15:06:38.960Z,44.10
2022-07-29T15:09:05.814Z,41.60
2022-07-29T15:11:32.599Z,41.27
2022-07-29T15:14:05.247Z,42.24
2022-07-29T15:16:31.968Z,40.28
2022-07-29T15:19:01.192Z,38.36
2022-07-29T15:21:28.412Z,38.81
2022-07-29T15:23:55.035Z,38.58
2022-07-29T15:26:21.729Z,37.94
2022-07-29T15:28:48.927Z,37.86
2022-07-29T15:31:15.894Z,39.15
2022-07-29T15:33:42.589Z,40.12
2022-07-29T15:36:09.619Z,40.10
2022-07-29T15:38:41.664Z,39.72
2022-07-29T15:41:09.035Z,41.45
2022-07-29T15:43:36.237Z,42.59
2022-07-29T15:46:21.497Z,42.62
2022-07-29T15:48:48.438Z,42.04
2022-07-29T15:51:15.232Z,41.16
2022-07-29T15:53:41.961Z,40.55
2022-07-29T15:56:08.559Z,42.01
2022-07-29T15:58:35.219Z,42.71
2022-07-29T16:01:01.967Z,43.73
2022-07-29T16:03:28.812Z,44.89
2022-07-29T16:05:55.426Z,46.31
2022-07-29T16:08:22.060Z,47.86
2022-07-29T16:10:51.107Z,48.00
2022-07-29T16:13:18.875Z,48.77
2022-07-29T16:15:45.933Z,49.58
2022-07-29T16:18:30.379Z,49.79
2022-07-29T16:20:57.775Z,48.17
2022-07-29T16:23:24.815Z,46.95
2022-07-29T16:25:59.625Z,46.23
2022-07-29T16:28:27.887Z,46.95
2022-07-29T16:30:54.598Z,48.03
2022-07-29T16:33:21.201Z,48.37
2022-07-29T16:35:47.807Z,48.89
2022-07-29T16:38:14.391Z,49.81
2022-07-29T16:40:41.157Z,51.09
2022-07-29T16:43:07.959Z,53.55
2022-07-29T16:45:46.040Z,55.96
2022-07-29T16:48:18.113Z,56.33
2022-07-29T16:50:45.619Z,58.19
2022-07-29T16:53:12.229Z,59.07
2022-07-29T16:55:38.853Z,60.87
2022-07-29T16:58:09.618Z,62.83
2022-07-29T17:00:36.590Z,63.49
2022-07-29T17:03:03.427Z,65.67
2022-07-29T17:05:30.111Z,68.31
2022-07-29T17:08:16.770Z,69.76
2022-07-29T17:10:43.432Z,71.21
2022-07-29T17:13:10.101Z,72.07
2022-07-29T17:15:36.728Z,72.49
2022-07-29T17:18:12.322Z,71.63
2022-07-29T17:20:40.889Z,72.24
2022-07-29T17:23:07.722Z,72.46
2022-07-29T17:25:34.395Z,74.08
2022-07-29T17:28:01.935Z,73.98
2022-07-29T17:30:29.597Z,71.97
2022-07-29T17:32:56.289Z,73.50
2022-07-29T17:35:41.401Z,73.68
2022-07-29T17:38:08.277Z,74.21
2022-07-29T17:40:34.870Z,74.44
2022-07-29T17:43:01.498Z,75.89
2022-07-29T17:45:49.627Z,77.33
2022-07-29T17:48:14.756Z,78.56
2022-07-29T17:50:41.409Z,80.45
2022-07-29T17:53:09.588Z,81.18
2022-07-29T17:55:48.585Z,82.05
2022-07-29T17:58:15.878Z,83.64
2022-07-29T18:00:42.846Z,84.82
2022-07-29T18:03:09.668Z,86.68
2022-07-29T18:05:36.356Z,88.73
2022-07-29T18:08:02.931Z,90.03
2022-07-29T18:10:30.306Z,90.33
2022-07-29T18:12:57.016Z,91.12
2022-07-29T18:15:23.588Z,91.68
2022-07-29T18:17:57.086Z,92.62
2022-07-29T18:20:27.944Z,93.45
2022-07-29T18:22:54.912Z,94.39
2022-07-29T18:25:22.164Z,93.23
2022-07-29T18:27:48.734Z,94.09
2022-07-29T18:30:15.482Z,93.84
2022-07-29T18:32:59.082Z,96.94
2022-07-29T18:35:30.045Z,96.04
2022-07-29T18:38:01.980Z,95.43
2022-07-29T18:40:29.769Z,94.86
2022-07-29T18:42:56.557Z,95.45
2022-07-29T18:45:23.287Z,95.78
2022-07-29T18:47:56.691Z,96.30
2022-07-29T18:50:28.961Z,97.11
2022-07-29T18:52:58.369Z,96.66
2022-07-29T18:55:25.998Z,96.60
2022-07-29T18:57:54.671Z,96.94
2022-07-29T19:00:25.190Z,95.25
2022-07-29T19:02:52.755Z,93.71
2022-07-29T19:05:19.690Z,94.61
2022-07-29T19:07:46.233Z,94.77
2022-07-29T19:10:13.636Z,94.71
2022-07-29T19:12:40.370Z,95.73
2022-07-29T19:15:10.328Z,95.43
2022-07-29T19:17:37.062Z,95.23
2022-07-29T19:20:04.071Z,96.33
2022-07-29T19:22:31.112Z,96.55
2022-07-29T19:24:57.770Z,95.71
2022-07-29T19:27:24.526Z,96.80
2022-07-29T19:29:51.168Z,97.01
2022-07-29T19:32:24.701Z,97.80
2022-07-29T19:35:10.688Z,98.70
2022-07-29T19:37:37.556Z,98.93
2022-07-29T19:40:06.023Z,99.70
2022-07-29T19:42:32.593Z,100.00
2022-07-29T19:45:03.753Z,100.00
2022-07-29T19:47:30.803Z,100.00
2022-07-29T19:49:58.235Z,100.00
2022-07-29T19:52:24.870Z,100.00
2022-07-29T19:54:51.531Z,100.00
2022-07-29T19:57:18.162Z,100.00
2022-07-29T19:59:44.786Z,100.00
2022-07-29T20:02:12.455Z,100.00
2022-07-29T20:04:39.805Z,100.00
2022-07-29T20:07:06.795Z,100.00
2022-07-29T20:09:33.574Z,100.00
2022-07-29T20:12:00.403Z,100.00
2022-07-29T20:14:26.973Z,100.00
2022-07-29T20:16:56.083Z,100.00
2022-07-29T20:19:22.693Z,100.00
2022-07-29T20:21:50.714Z,100.00
2022-07-29T20:24:18.406Z,100.00
2022-07-29T20:26:44.976Z,100.00
2022-07-29T20:29:11.603Z,100.00
2022-07-29T20:31:38.235Z,100.00
2022-07-29T20:34:04.982Z,100.00
2022-07-29T20:36:31.709Z,100.00
2022-07-29T20:38:59.997Z,100.00
2022-07-29T20:41:26.986Z,100.00
2022-07-29T20:43:53.581Z,100.00
2022-07-29T20:46:20.216Z,100.00
2022-07-29T20:48:47.294Z,100.00
2022-07-29T20:51:14.538Z,100.00
2022-07-29T20:53:41.653Z,100.00
2022-07-29T20:56:08.631Z,100.00
2022-07-29T20:58:36.422Z,100.00
2022-07-29T21:01:04.300Z,100.00
2022-07-29T21:03:31.066Z,100.00
2022-07-29T21:05:57.621Z,100.00
2022-07-29T21:08:24.550Z,100.00
2022-07-29T21:10:51.226Z,100.00
2022-07-29T21:13:18.623Z,100.00
2022-07-29T21:15:49.224Z,100.00
2022-07-29T21:18:27.103Z,100.00
2022-07-29T21:20:54.843Z,100.00
2022-07-29T21:23:21.510Z,100.00
2022-07-29T21:25:48.140Z,100.00
2022-07-29T21:28:27.039Z,100.00
2022-07-29T21:30:55.616Z,100.00
2022-07-29T21:33:22.823Z,100.00
2022-07-29T21:38:36.612Z,100.00
2022-07-29T21:41:04.551Z,100.00
2022-07-29T21:43:31.426Z,100.00
2022-07-29T21:45:59.827Z,100.00
2022-07-29T21:48:27.806Z,100.00
2022-07-29T21:50:54.834Z,100.00
2022-07-29T21:53:22.141Z,100.00
2022-07-29T21:55:55.442Z,100.00
2022-07-29T21:58:22.974Z,100.00
2022-07-29T22:00:52.567Z,100.00
2022-07-29T22:03:19.181Z,100.00
2022-07-29T22:05:45.968Z,100.00
2022-07-29T22:08:13.544Z,100.00
2022-07-29T22:10:40.150Z,100.00
2022-07-29T22:13:06.831Z,100.00
2022-07-29T22:15:33.746Z,100.00
2022-07-29T22:18:00.531Z,100.00
2022-07-29T22:20:27.500Z,100.00
2022-07-29T22:22:54.209Z,100.00
2022-07-29T22:25:21.244Z,100.00
2022-07-29T22:27:47.978Z,100.00
2022-07-29T22:30:14.619Z,100.00
2022-07-29T22:32:41.412Z,100.00
2022-07-29T22:35:08.341Z,100.00
2022-07-29T22:37:35.116Z,100.00
2022-07-29T22:40:01.985Z,100.00
2022-07-29T22:42:28.636Z,100.00
2022-07-29T22:44:55.466Z,100.00
2022-07-29T22:47:46.537Z,100.00
2022-07-29T22:50:08.952Z,100.00
2022-07-29T22:52:35.536Z,100.00
2022-07-29T22:55:03.696Z,100.00
2022-07-29T22:57:30.343Z,100.00
2022-07-29T22:59:57.223Z,100.00
2022-07-29T23:02:23.836Z,100.00
2022-07-29T23:04:50.430Z,100.00
2022-07-29T23:07:17.631Z,100.00
2022-07-29T23:09:44.271Z,100.00
2022-07-29T23:12:10.850Z,100.00
2022-07-29T23:14:37.799Z,100.00
2022-07-29T23:17:04.968Z,100.00
2022-07-29T23:19:31.764Z,100.00
2022-07-29T23:21:58.393Z,100.00
2022-07-29T23:24:24.952Z,100.00
2022-07-29T23:26:51.520Z,100.00
2022-07-29T23:29:18.107Z,100.00
2022-07-29T23:31:48.024Z,100.00
2022-07-29T23:34:15.071Z,100.00
2022-07-29T23:36:42.453Z,100.00
2022-07-29T23:39:13.286Z,100.00
2022-07-29T23:41:40.233Z,100.00
2022-07-29T23:44:07.016Z,100.00
2022-07-29T23:46:33.807Z,100.00
2022-07-29T23:49:00.575Z,100.00
2022-07-29T23:51:29.141Z,100.00
2022-07-29T23:53:56.205Z,100.00
2022-07-29T23:56:23.436Z,100.00
2022-07-29T23:58:50.195Z,100.00
